createdAt,value
2018-12-30T00:01:22.000Z,2.40
2018-12-30T00:04:11.118Z,2.50
2018-12-30T00:06:42.587Z,2.60
2018-12-30T00:09:31.236Z,2.60
2018-12-30T00:12:19.960Z,2.60
2018-12-30T00:15:08.548Z,2.60
2018-12-30T00:17:56.829Z,2.60
2018-12-30T00:20:45.411Z,2.70
2018-12-30T00:23:28.687Z,2.70
2018-12-30T00:26:09.239Z,2.70
2018-12-30T00:28:50.099Z,2.90
2018-12-30T00:31:19.834Z,3.00
2018-12-30T00:37:15.406Z,3.10
2018-12-30T00:40:03.686Z,3.20
2018-12-30T00:42:52.007Z,3.30
2018-12-30T00:45:40.358Z,3.40
2018-12-30T00:48:28.762Z,3.40
2018-12-30T00:51:17.498Z,3.40
2018-12-30T00:54:06.118Z,3.40
2018-12-30T00:56:54.449Z,3.40
2018-12-30T00:59:42.998Z,3.50
2018-12-30T01:02:31.588Z,3.50
2018-12-30T01:05:20.254Z,3.60
2018-12-30T01:08:08.539Z,3.60
2018-12-30T01:10:38.523Z,3.60
2018-12-30T01:13:27.164Z,3.70
2018-12-30T01:16:15.915Z,3.70
2018-12-30T01:19:04.463Z,3.70
2018-12-30T01:21:52.779Z,3.80
2018-12-30T01:24:33.811Z,3.80
2018-12-30T01:27:14.931Z,3.80
2018-12-30T01:29:56.371Z,3.90
2018-12-30T01:32:37.663Z,3.80
2018-12-30T01:35:18.180Z,3.80
2018-12-30T01:37:48.202Z,3.80
2018-12-30T01:40:36.795Z,3.70
2018-12-30T01:43:25.076Z,3.70
2018-12-30T01:46:32.683Z,3.80
2018-12-30T01:49:20.975Z,3.80
2018-12-30T01:52:09.307Z,3.80
2018-12-30T01:54:57.599Z,3.80
2018-12-30T01:57:46.189Z,3.80
2018-12-30T02:00:34.474Z,3.70
2018-12-30T02:03:22.792Z,3.80
2018-12-30T02:06:04.505Z,3.80
2018-12-30T02:08:45.279Z,3.80
2018-12-30T02:11:27.648Z,3.80
2018-12-30T02:17:26.243Z,3.80
2018-12-30T02:20:07.549Z,3.80
2018-12-30T02:22:50.116Z,3.80
2018-12-30T02:25:31.263Z,3.80
2018-12-30T02:28:11.723Z,3.80
2018-12-30T02:30:52.814Z,3.70
2018-12-30T02:33:33.691Z,3.70
2018-12-30T02:36:15.751Z,3.70
2018-12-30T02:38:57.108Z,3.70
2018-12-30T02:41:38.257Z,3.70
2018-12-30T02:44:18.971Z,3.80
2018-12-30T02:46:59.881Z,3.80
2018-12-30T02:49:40.678Z,3.80
2018-12-30T02:52:21.699Z,3.80
2018-12-30T02:55:02.667Z,3.80
2018-12-30T02:57:44.207Z,3.80
2018-12-30T03:00:24.808Z,3.80
2018-12-30T03:03:06.472Z,3.80
2018-12-30T03:05:46.987Z,3.70
2018-12-30T03:08:27.940Z,3.70
2018-12-30T03:11:09.199Z,3.70
2018-12-30T03:16:58.612Z,3.70
2018-12-30T03:19:39.611Z,3.80
2018-12-30T03:22:20.773Z,3.70
2018-12-30T03:25:20.568Z,3.80
2018-12-30T03:28:01.704Z,3.80
2018-12-30T03:30:42.744Z,3.70
2018-12-30T03:33:23.601Z,3.70
2018-12-30T03:36:04.123Z,3.70
2018-12-30T03:38:44.899Z,3.60
2018-12-30T03:41:26.328Z,3.70
2018-12-30T03:44:07.675Z,3.70
2018-12-30T03:46:48.514Z,3.60
2018-12-30T03:49:48.952Z,3.60
2018-12-30T03:55:34.612Z,3.60
2018-12-30T03:58:15.259Z,3.60
2018-12-30T04:00:56.594Z,3.60
2018-12-30T04:03:38.055Z,3.70
2018-12-30T04:06:17.336Z,3.70
2018-12-30T04:09:06.846Z,3.70
2018-12-30T04:11:55.075Z,3.70
2018-12-30T04:14:43.963Z,3.70
2018-12-30T04:17:32.183Z,3.80
2018-12-30T04:20:20.460Z,3.80
2018-12-30T04:23:08.712Z,3.70
2018-12-30T04:28:45.734Z,3.80
2018-12-30T04:31:34.336Z,3.80
2018-12-30T04:34:15.515Z,3.80
2018-12-30T04:36:56.642Z,3.80
2018-12-30T04:39:37.593Z,3.80
2018-12-30T04:42:18.351Z,3.90
2018-12-30T04:44:59.435Z,3.90
2018-12-30T04:47:40.231Z,3.90
2018-12-30T04:50:21.671Z,3.90
2018-12-30T04:53:03.104Z,3.90
2018-12-30T04:55:43.935Z,3.90
2018-12-30T04:58:24.508Z,3.90
2018-12-30T05:01:05.495Z,3.80
2018-12-30T05:03:46.449Z,3.80
2018-12-30T05:06:16.205Z,3.90
2018-12-30T05:09:06.155Z,3.80
2018-12-30T05:11:47.727Z,3.90
2018-12-30T05:14:29.143Z,3.90
2018-12-30T05:17:10.515Z,3.90
2018-12-30T05:19:51.251Z,3.90
2018-12-30T05:22:34.002Z,3.90
2018-12-30T05:25:15.383Z,3.90
2018-12-30T05:27:56.080Z,3.90
2018-12-30T05:30:36.871Z,3.90
2018-12-30T05:33:17.313Z,3.90
2018-12-30T05:35:46.916Z,3.90
2018-12-30T05:38:35.439Z,3.90
2018-12-30T05:41:24.295Z,3.90
2018-12-30T05:44:12.833Z,3.90
2018-12-30T05:47:01.403Z,3.90
2018-12-30T05:49:50.297Z,3.90
2018-12-30T05:52:42.051Z,3.90
2018-12-30T05:55:29.672Z,3.90
2018-12-30T05:58:17.959Z,3.90
2018-12-30T06:01:05.571Z,3.90
2018-12-30T06:03:54.123Z,4.00
2018-12-30T06:06:42.747Z,3.90
2018-12-30T06:12:57.375Z,3.90
2018-12-30T06:15:38.791Z,3.90
2018-12-30T06:18:19.527Z,3.90
2018-12-30T06:21:00.587Z,3.90
2018-12-30T06:23:29.991Z,3.90
2018-12-30T06:26:18.623Z,3.90
2018-12-30T06:29:07.707Z,3.90
2018-12-30T06:31:55.980Z,3.90
2018-12-30T06:34:44.231Z,3.90
2018-12-30T06:37:33.136Z,3.80
2018-12-30T06:40:21.468Z,3.80
2018-12-30T06:43:09.700Z,3.80
2018-12-30T06:45:58.280Z,3.90
2018-12-30T06:48:46.508Z,3.90
2018-12-30T06:51:34.759Z,3.90
2018-12-30T06:54:23.263Z,3.90
2018-12-30T06:57:11.515Z,3.90
2018-12-30T07:00:00.181Z,3.80
2018-12-30T07:02:48.399Z,3.80
2018-12-30T07:05:36.927Z,3.80
2018-12-30T07:08:25.974Z,3.80
2018-12-30T07:11:14.236Z,3.80
2018-12-30T07:14:38.919Z,3.80
2018-12-30T07:17:27.176Z,3.80
2018-12-30T07:20:15.744Z,3.80
2018-12-30T07:23:05.970Z,3.80
2018-12-30T07:25:53.931Z,3.80
2018-12-30T07:28:42.231Z,3.80
2018-12-30T07:31:30.491Z,3.80
2018-12-30T07:33:59.630Z,3.90
2018-12-30T07:36:47.889Z,3.90
2018-12-30T07:39:36.426Z,3.90
2018-12-30T07:42:16.939Z,3.90
2018-12-30T07:50:45.519Z,4.00
2018-12-30T07:53:26.731Z,4.00
2018-12-30T07:56:07.526Z,4.00
2018-12-30T07:58:48.691Z,4.00
2018-12-30T08:01:29.651Z,4.00
2018-12-30T08:04:10.539Z,4.00
2018-12-30T08:09:57.020Z,4.10
2018-12-30T08:12:37.803Z,4.10
2018-12-30T08:15:18.863Z,4.10
2018-12-30T08:17:59.527Z,4.10
2018-12-30T08:20:40.454Z,4.10
2018-12-30T08:23:23.676Z,4.10
2018-12-30T08:26:04.532Z,4.10
2018-12-30T08:28:45.466Z,4.10
2018-12-30T08:31:26.552Z,4.10
2018-12-30T08:34:07.000Z,4.10
2018-12-30T08:36:50.895Z,4.10
2018-12-30T08:39:31.304Z,4.10
2018-12-30T08:42:00.507Z,4.10
2018-12-30T08:44:49.007Z,4.10
2018-12-30T08:47:37.324Z,4.20
2018-12-30T08:50:25.548Z,4.20
2018-12-30T08:53:14.085Z,4.30
2018-12-30T08:56:02.339Z,4.30
2018-12-30T09:02:34.346Z,4.30
2018-12-30T09:05:22.656Z,4.30
2018-12-30T09:08:10.922Z,4.40
2018-12-30T09:10:59.420Z,4.40
2018-12-30T09:13:48.078Z,4.40
2018-12-30T09:16:36.365Z,4.40
2018-12-30T09:19:25.023Z,4.50
2018-12-30T09:22:13.959Z,4.50
2018-12-30T09:25:02.599Z,4.50
2018-12-30T09:27:32.046Z,4.50
2018-12-30T09:30:20.592Z,4.50
2018-12-30T09:32:50.024Z,4.50
2018-12-30T09:35:56.332Z,4.50
2018-12-30T09:42:07.835Z,4.50
2018-12-30T09:44:48.827Z,4.60
2018-12-30T09:47:30.439Z,4.60
2018-12-30T09:50:10.914Z,4.60
2018-12-30T09:52:52.291Z,4.60
2018-12-30T09:58:12.200Z,4.80
2018-12-30T10:00:52.660Z,4.90
2018-12-30T10:03:33.704Z,4.90
2018-12-30T10:06:14.799Z,5.00
2018-12-30T10:08:55.831Z,5.00
2018-12-30T10:11:37.783Z,5.00
2018-12-30T10:14:19.272Z,5.00
2018-12-30T10:17:00.735Z,5.00
2018-12-30T10:19:30.123Z,5.10
2018-12-30T10:22:18.827Z,5.10
2018-12-30T10:25:07.048Z,5.10
2018-12-30T10:27:55.617Z,5.10
2018-12-30T10:30:44.184Z,5.10
2018-12-30T10:33:32.479Z,5.10
2018-12-30T10:36:38.471Z,5.20
2018-12-30T10:39:19.592Z,5.20
2018-12-30T10:42:01.061Z,5.10
2018-12-30T10:44:42.299Z,5.10
2018-12-30T10:47:23.128Z,5.10
2018-12-30T10:53:22.819Z,5.10
2018-12-30T10:56:03.823Z,5.00
2018-12-30T10:58:44.980Z,5.10
2018-12-30T11:01:25.471Z,5.10
2018-12-30T11:04:06.560Z,5.10
2018-12-30T11:06:47.727Z,5.20
2018-12-30T11:09:28.782Z,5.40
2018-12-30T11:12:09.394Z,5.30
2018-12-30T11:14:50.624Z,5.30
2018-12-30T11:17:31.449Z,5.20
2018-12-30T11:20:12.583Z,5.20
2018-12-30T11:22:53.743Z,5.20
2018-12-30T11:28:16.751Z,5.10
2018-12-30T11:30:58.011Z,5.10
2018-12-30T11:33:38.700Z,5.10
2018-12-30T11:36:19.966Z,5.00
2018-12-30T11:39:01.168Z,5.00
2018-12-30T11:41:41.972Z,5.00
2018-12-30T11:44:22.859Z,5.00
2018-12-30T11:47:03.969Z,5.00
2018-12-30T11:49:44.807Z,5.00
2018-12-30T11:52:25.559Z,5.00
2018-12-30T11:55:06.507Z,5.00
2018-12-30T11:57:48.008Z,5.00
2018-12-30T12:00:29.463Z,5.00
2018-12-30T12:03:10.019Z,5.00
2018-12-30T12:05:50.762Z,5.00
2018-12-30T12:08:31.583Z,5.10
2018-12-30T12:11:12.352Z,5.00
2018-12-30T12:13:53.231Z,5.00
2018-12-30T12:16:34.480Z,5.00
2018-12-30T12:19:15.107Z,5.00
2018-12-30T12:21:56.035Z,5.00
2018-12-30T12:24:37.823Z,5.00
2018-12-30T12:27:19.095Z,5.10
2018-12-30T12:30:00.520Z,5.00
2018-12-30T12:32:41.903Z,5.10
2018-12-30T12:35:23.265Z,5.10
2018-12-30T12:38:03.992Z,5.20
2018-12-30T12:40:45.913Z,5.20
2018-12-30T12:43:27.008Z,5.20
2018-12-30T12:49:26.360Z,5.20
2018-12-30T12:52:07.912Z,5.20
2018-12-30T12:54:48.803Z,5.20
2018-12-30T13:00:12.124Z,5.10
2018-12-30T13:02:53.392Z,5.10
2018-12-30T13:05:34.047Z,5.10
2018-12-30T13:08:14.944Z,5.00
2018-12-30T13:10:55.642Z,5.00
2018-12-30T13:13:36.503Z,5.00
2018-12-30T13:16:17.407Z,5.00
2018-12-30T13:18:58.383Z,5.00
2018-12-30T13:21:39.532Z,5.10
2018-12-30T13:24:20.368Z,5.00
2018-12-30T13:27:01.484Z,5.00
2018-12-30T13:29:42.556Z,5.00
2018-12-30T13:38:47.195Z,4.90
2018-12-30T13:41:28.239Z,4.90
2018-12-30T13:44:09.366Z,5.00
2018-12-30T13:46:50.567Z,5.00
2018-12-30T13:52:36.799Z,4.90
2018-12-30T13:55:18.102Z,4.90
2018-12-30T14:01:17.237Z,4.90
2018-12-30T14:03:58.020Z,4.90
2018-12-30T14:06:38.772Z,4.80
2018-12-30T14:12:27.855Z,4.90
2018-12-30T14:15:08.521Z,4.80
2018-12-30T14:17:49.786Z,4.90
2018-12-30T14:23:36.955Z,4.80
2018-12-30T14:26:18.339Z,4.80
2018-12-30T14:28:58.855Z,4.70
2018-12-30T14:31:39.584Z,4.70
2018-12-30T14:34:21.254Z,4.60
2018-12-30T14:37:21.469Z,4.50
2018-12-30T14:40:02.053Z,4.50
2018-12-30T14:45:25.209Z,4.40
2018-12-30T14:48:06.235Z,4.30
2018-12-30T14:50:47.148Z,4.30
2018-12-30T14:53:27.851Z,4.30
2018-12-30T14:56:09.271Z,4.20
2018-12-30T14:58:49.922Z,4.20
2018-12-30T15:01:30.636Z,4.20
2018-12-30T15:04:11.748Z,4.10
2018-12-30T15:06:52.559Z,4.10
2018-12-30T15:09:35.837Z,4.10
2018-12-30T15:12:16.311Z,4.10
2018-12-30T15:14:57.784Z,4.10
2018-12-30T15:17:27.307Z,4.00
2018-12-30T15:23:42.569Z,4.00
2018-12-30T15:26:11.979Z,3.90
2018-12-30T15:29:00.247Z,3.90
2018-12-30T15:31:48.588Z,3.90
2018-12-30T15:34:36.892Z,3.90
2018-12-30T15:37:25.163Z,3.90
2018-12-30T15:40:13.387Z,3.90
2018-12-30T15:43:01.728Z,3.90
2018-12-30T15:45:49.959Z,3.80
2018-12-30T15:48:38.571Z,3.80
2018-12-30T15:51:27.083Z,3.80
2018-12-30T15:54:15.375Z,3.80
2018-12-30T15:56:44.501Z,3.90
2018-12-30T15:59:33.516Z,4.00
2018-12-30T16:02:21.787Z,4.00
2018-12-30T16:07:58.822Z,4.00
2018-12-30T16:10:47.047Z,3.90
2018-12-30T16:13:35.635Z,3.90
2018-12-30T16:16:24.256Z,3.90
2018-12-30T16:19:12.848Z,3.80
2018-12-30T16:22:01.075Z,3.80
2018-12-30T16:24:49.415Z,3.80
2018-12-30T16:30:24.895Z,3.70
2018-12-30T16:33:05.695Z,3.70
2018-12-30T16:35:46.803Z,3.80
2018-12-30T16:38:27.870Z,3.70
2018-12-30T16:41:08.988Z,3.70
2018-12-30T16:43:49.717Z,3.80
2018-12-30T16:46:50.204Z,3.70
2018-12-30T16:52:50.731Z,3.70
2018-12-30T16:55:34.951Z,3.70
2018-12-30T16:58:14.623Z,3.70
2018-12-30T17:00:55.420Z,3.70
2018-12-30T17:03:36.523Z,3.60
2018-12-30T17:06:17.789Z,3.70
2018-12-30T17:08:47.344Z,3.70
2018-12-30T17:11:35.617Z,3.70
2018-12-30T17:14:23.895Z,3.70
2018-12-30T17:17:12.776Z,3.70
2018-12-30T17:20:01.290Z,3.60
2018-12-30T17:22:49.555Z,3.70
2018-12-30T17:25:43.072Z,3.60
2018-12-30T17:28:26.958Z,3.60
2018-12-30T17:34:26.599Z,3.60
2018-12-30T17:37:07.647Z,3.60
2018-12-30T17:39:37.123Z,3.60
2018-12-30T17:42:25.391Z,3.60
2018-12-30T17:47:42.596Z,3.60
2018-12-30T17:50:30.914Z,3.70
2018-12-30T17:53:19.184Z,3.70
2018-12-30T17:56:07.721Z,3.70
2018-12-30T17:58:56.607Z,3.60
2018-12-30T18:01:45.572Z,3.60
2018-12-30T18:04:33.907Z,3.60
2018-12-30T18:07:22.174Z,3.60
2018-12-30T18:10:29.948Z,3.60
2018-12-30T18:13:18.507Z,3.60
2018-12-30T18:16:07.194Z,3.60
2018-12-30T18:18:55.734Z,3.50
2018-12-30T18:21:43.967Z,3.50
2018-12-30T18:24:32.511Z,3.50
2018-12-30T18:27:40.079Z,3.50
2018-12-30T18:30:28.368Z,3.50
2018-12-30T18:33:07.847Z,3.50
2018-12-30T18:35:56.071Z,3.50
2018-12-30T18:42:17.775Z,3.50
2018-12-30T18:45:06.318Z,3.50
2018-12-30T18:47:54.611Z,3.50
2018-12-30T18:54:27.519Z,3.50
2018-12-30T18:57:16.094Z,3.40
2018-12-30T19:00:04.959Z,3.40
2018-12-30T19:02:53.788Z,3.30
2018-12-30T19:05:42.378Z,3.30
2018-12-30T19:08:31.213Z,3.40
2018-12-30T19:11:00.691Z,3.30
2018-12-30T19:13:48.972Z,3.30
2018-12-30T19:16:37.198Z,3.30
2018-12-30T19:19:25.753Z,3.30
2018-12-30T19:22:14.295Z,3.30
2018-12-30T19:25:02.829Z,3.30
2018-12-30T19:27:51.067Z,3.30
2018-12-30T19:30:20.259Z,3.30
2018-12-30T19:36:09.696Z,3.20
2018-12-30T19:38:50.191Z,3.20
2018-12-30T19:44:38.157Z,3.20
2018-12-30T19:47:26.533Z,3.20
2018-12-30T19:50:22.823Z,3.20
2018-12-30T19:53:11.047Z,3.20
2018-12-30T19:55:59.322Z,3.20
2018-12-30T20:01:42.159Z,3.10
2018-12-30T20:04:30.999Z,3.20
2018-12-30T20:07:20.063Z,3.10
2018-12-30T20:10:08.371Z,3.10
2018-12-30T20:12:49.823Z,3.10
2018-12-30T20:15:30.819Z,3.10
2018-12-30T20:18:12.418Z,3.20
2018-12-30T20:24:17.848Z,3.10
2018-12-30T20:32:45.560Z,3.10
2018-12-30T20:35:26.885Z,3.10
2018-12-30T20:38:07.831Z,3.10
2018-12-30T20:40:49.250Z,3.10
2018-12-30T20:43:30.579Z,3.10
2018-12-30T20:46:11.895Z,3.10
2018-12-30T20:48:52.683Z,3.10
2018-12-30T20:51:34.208Z,3.10
2018-12-30T20:54:14.803Z,3.10
2018-12-30T20:56:56.007Z,3.00
2018-12-30T20:59:37.199Z,3.00
2018-12-30T21:02:17.683Z,3.00
2018-12-30T21:04:58.556Z,3.00
2018-12-30T21:10:09.856Z,3.00
2018-12-30T21:12:50.719Z,3.00
2018-12-30T21:15:31.651Z,3.00
2018-12-30T21:18:12.555Z,3.00
2018-12-30T21:20:53.356Z,3.00
2018-12-30T21:23:33.981Z,3.10
2018-12-30T21:26:14.829Z,3.10
2018-12-30T21:28:56.262Z,3.10
2018-12-30T21:31:41.094Z,3.00
2018-12-30T21:34:22.509Z,3.00
2018-12-30T21:37:03.710Z,3.00
2018-12-30T21:39:44.275Z,3.00
2018-12-30T21:42:25.641Z,2.90
2018-12-30T21:47:56.092Z,2.90
2018-12-30T21:50:25.790Z,2.90
2018-12-30T21:53:14.359Z,2.90
2018-12-30T21:56:03.101Z,2.90
2018-12-30T21:58:51.667Z,2.90
2018-12-30T22:01:40.294Z,2.90
2018-12-30T22:04:28.871Z,2.80
2018-12-30T22:07:17.144Z,2.80
2018-12-30T22:10:06.346Z,2.80
2018-12-30T22:12:47.838Z,2.80
2018-12-30T22:15:29.163Z,2.80
2018-12-30T22:18:10.339Z,2.80
2018-12-30T22:20:51.771Z,2.80
2018-12-30T22:23:21.258Z,2.80
2018-12-30T22:26:09.787Z,2.80
2018-12-30T22:28:58.011Z,2.80
2018-12-30T22:31:46.355Z,2.80
2018-12-30T22:34:34.586Z,2.80
2018-12-30T22:37:04.088Z,2.80
2018-12-30T22:39:52.384Z,2.80
2018-12-30T22:42:40.675Z,2.80
2018-12-30T22:45:29.166Z,2.80
2018-12-30T22:48:17.432Z,2.80
2018-12-30T22:51:05.772Z,2.80
2018-12-30T22:53:54.000Z,2.70
2018-12-30T22:56:59.958Z,2.80
2018-12-30T22:59:48.483Z,2.70
2018-12-30T23:02:36.831Z,2.70
2018-12-30T23:05:25.395Z,2.80
2018-12-30T23:08:13.655Z,2.90
2018-12-30T23:11:02.091Z,2.80
2018-12-30T23:13:43.823Z,2.80
2018-12-30T23:16:25.143Z,2.80
2018-12-30T23:19:06.249Z,2.80
2018-12-30T23:24:58.324Z,2.80
2018-12-30T23:27:37.728Z,2.80
2018-12-30T23:33:48.386Z,2.70
2018-12-30T23:43:34.965Z,2.80
2018-12-30T23:46:22.051Z,2.70
2018-12-30T23:55:24.956Z,2.70
2018-12-30T23:58:05.995Z,2.80
